Time;durP1;ratioP1;P1;durP2;ratioP2;P2;SDS_P1;SDS_P2;PMS_P1;PMS_P2;Temp;Humidity;BMP_temperature;BMP_pressure;BME280_temperature;BME280_humidity;BME280_pressure;Samples;Min_cycle;Max_cycle;Signal;HPM_P1;HPM_P2
2021/03/29 00:00:19;;;;;;;15.13;2.80;;;;;;;;;;5149420;27;20047;-80
2021/03/29 00:02:45;;;;;;;12.55;2.70;;;;;;;;;;5129724;27;20039;-80
2021/03/29 00:05:12;;;;;;;11.98;3.08;;;;;;;;;;5127856;27;20047;-79
2021/03/29 00:07:39;;;;;;;13.90;3.25;;;;;;;;;;5134407;27;20103;-77
2021/03/29 00:10:06;;;;;;;10.40;2.08;;;;;;;;;;5124912;27;20023;-80
2021/03/29 00:12:34;;;;;;;10.50;2.65;;;;;;;;;;5131527;27;20031;-80
2021/03/29 00:15:01;;;;;;;11.55;2.60;;;;;;;;;;5122563;27;20051;-79
2021/03/29 00:17:27;;;;;;;10.85;2.47;;;;;;;;;;5124646;27;20423;-79
2021/03/29 00:19:54;;;;;;;14.48;2.70;;;;;;;;;;5137497;27;20038;-79
2021/03/29 00:22:20;;;;;;;12.63;3.38;;;;;;;;;;5120355;27;20430;-80
2021/03/29 00:24:47;;;;;;;12.07;2.55;;;;;;;;;;5117328;27;20454;-80
2021/03/29 00:27:14;;;;;;;10.02;2.70;;;;;;;;;;5144489;27;20051;-80
2021/03/29 00:29:40;;;;;;;9.73;2.15;;;;;;;;;;5127169;27;20059;-80
2021/03/29 00:32:07;;;;;;;11.65;2.88;;;;;;;;;;5129080;27;20453;-79
2021/03/29 00:34:34;;;;;;;12.07;2.75;;;;;;;;;;5129857;27;20450;-79
2021/03/29 00:37:03;;;;;;;19.08;2.80;;;;;;;;;;5142191;27;20028;-78
2021/03/29 00:39:38;;;;;;;11.75;2.88;;;;;;;;;;5128663;27;20146;-79
2021/03/29 00:42:05;;;;;;;9.27;2.17;;;;;;;;;;5113655;27;20444;-78
2021/03/29 00:44:32;;;;;;;15.60;3.38;;;;;;;;;;5125986;27;20123;-78
2021/03/29 00:46:59;;;;;;;10.38;3.13;;;;;;;;;;5130570;27;20035;-79
2021/03/29 00:49:25;;;;;;;9.30;2.50;;;;;;;;;;5130747;27;20091;-78
2021/03/29 00:51:52;;;;;;;10.90;2.03;;;;;;;;;;5128877;27;20035;-78
2021/03/29 00:54:18;;;;;;;13.05;2.40;;;;;;;;;;5127818;27;20032;-79
2021/03/29 00:56:45;;;;;;;10.75;2.30;;;;;;;;;;5142423;27;20039;-80
2021/03/29 00:59:14;;;;;;;8.93;2.17;;;;;;;;;;5128166;27;20047;-79
2021/03/29 01:01:43;;;;;;;8.27;2.75;;;;;;;;;;5126522;27;20378;-79
2021/03/29 01:04:10;;;;;;;9.38;2.25;;;;;;;;;;5125420;27;20024;-79
2021/03/29 01:06:39;;;;;;;11.90;2.72;;;;;;;;;;5115132;27;20080;-77
2021/03/29 01:09:08;;;;;;;16.48;3.33;;;;;;;;;;5123270;27;20106;-79
2021/03/29 01:11:36;;;;;;;7.03;1.90;;;;;;;;;;5122220;27;20327;-79
2021/03/29 01:14:07;;;;;;;15.23;2.92;;;;;;;;;;5124315;27;20043;-79
2021/03/29 01:16:36;;;;;;;9.68;2.47;;;;;;;;;;5126226;27;20042;-78
2021/03/29 01:19:03;;;;;;;12.68;2.33;;;;;;;;;;5129975;27;20043;-79
2021/03/29 01:21:43;;;;;;;7.57;2.60;;;;;;;;;;5124953;27;20075;-79
2021/03/29 01:24:13;;;;;;;15.68;3.20;;;;;;;;;;5128308;27;20031;-80
2021/03/29 01:26:43;;;;;;;9.52;2.17;;;;;;;;;;5122300;27;20481;-79
2021/03/29 01:29:10;;;;;;;10.32;2.45;;;;;;;;;;5131981;27;20035;-80
2021/03/29 01:31:37;;;;;;;6.95;2.20;;;;;;;;;;5124640;27;20066;-78
2021/03/29 01:34:04;;;;;;;9.18;2.60;;;;;;;;;;5106730;27;20408;-77
2021/03/29 01:36:31;;;;;;;8.18;2.38;;;;;;;;;;5144558;27;20128;-78
2021/03/29 01:38:57;;;;;;;15.48;2.53;;;;;;;;;;5115899;27;20107;-78
2021/03/29 01:41:24;;;;;;;9.38;2.10;;;;;;;;;;5125815;27;20074;-78
2021/03/29 01:43:50;;;;;;;8.02;2.40;;;;;;;;;;5125982;27;20043;-78
2021/03/29 01:46:17;;;;;;;10.95;3.67;;;;;;;;;;5131216;27;20042;-78
2021/03/29 01:48:44;;;;;;;12.07;2.75;;;;;;;;;;5126848;27;20067;-79
2021/03/29 01:51:11;;;;;;;9.95;2.47;;;;;;;;;;5125245;27;20027;-79
2021/03/29 01:53:38;;;;;;;8.63;2.28;;;;;;;;;;5093046;27;20043;-80
2021/03/29 01:56:05;;;;;;;10.45;2.22;;;;;;;;;;5126856;27;20031;-79
2021/03/29 01:58:31;;;;;;;10.82;3.03;;;;;;;;;;5122689;27;20100;-79
2021/03/29 02:00:59;;;;;;;11.57;2.95;;;;;;;;;;5130631;27;20031;-79
2021/03/29 02:03:26;;;;;;;14.20;2.80;;;;;;;;;;5122065;27;20027;-79
2021/03/29 02:05:53;;;;;;;13.80;3.10;;;;;;;;;;5130424;27;20042;-79
2021/03/29 02:08:20;;;;;;;10.88;2.75;;;;;;;;;;5119014;27;20113;-80
2021/03/29 02:10:47;;;;;;;8.68;2.47;;;;;;;;;;5123714;27;20051;-80
2021/03/29 02:13:13;;;;;;;10.55;2.40;;;;;;;;;;5129755;27;20084;-80
2021/03/29 02:15:39;;;;;;;12.70;3.30;;;;;;;;;;5125556;27;20078;-80
2021/03/29 02:18:15;;;;;;;12.20;3.28;;;;;;;;;;5127546;27;20480;-79
2021/03/29 02:20:42;;;;;;;9.40;2.58;;;;;;;;;;5130885;27;20224;-79
2021/03/29 02:23:09;;;;;;;10.48;2.95;;;;;;;;;;5127781;27;20106;-79
2021/03/29 02:25:36;;;;;;;10.00;2.35;;;;;;;;;;5128641;27;20462;-79
2021/03/29 02:28:04;;;;;;;9.18;3.08;;;;;;;;;;5142292;27;20039;-79
2021/03/29 02:30:34;;;;;;;10.68;2.80;;;;;;;;;;5126119;27;20031;-79
2021/03/29 02:33:01;;;;;;;9.18;2.75;;;;;;;;;;5123205;27;20122;-78
2021/03/29 02:35:27;;;;;;;15.82;3.05;;;;;;;;;;5114410;27;20035;-77
2021/03/29 02:37:56;;;;;;;11.50;2.97;;;;;;;;;;5120155;27;20088;-79
2021/03/29 02:40:23;;;;;;;9.18;3.05;;;;;;;;;;5130612;27;20035;-79
2021/03/29 02:42:50;;;;;;;15.95;2.42;;;;;;;;;;5127163;27;20047;-79
2021/03/29 02:45:18;;;;;;;9.45;2.50;;;;;;;;;;5126821;27;20027;-79
2021/03/29 02:47:45;;;;;;;7.28;2.22;;;;;;;;;;5126195;27;20043;-79
2021/03/29 02:50:16;;;;;;;9.93;2.60;;;;;;;;;;5141026;27;20050;-80
2021/03/29 02:52:44;;;;;;;10.32;2.50;;;;;;;;;;5124885;27;20385;-78
2021/03/29 02:55:12;;;;;;;16.80;3.08;;;;;;;;;;5128326;27;20059;-81
2021/03/29 02:57:39;;;;;;;8.55;2.63;;;;;;;;;;5106323;27;20043;-81
2021/03/29 03:00:13;;;;;;;12.60;2.78;;;;;;;;;;5136958;27;20117;-78
2021/03/29 03:02:39;;;;;;;10.82;2.70;;;;;;;;;;5125031;27;20443;-79
2021/03/29 03:05:06;;;;;;;13.38;2.72;;;;;;;;;;5115722;27;20119;-80
2021/03/29 03:07:33;;;;;;;10.18;2.67;;;;;;;;;;5114765;27;20427;-78
2021/03/29 03:09:59;;;;;;;13.98;3.30;;;;;;;;;;5129888;27;20034;-80
2021/03/29 03:12:26;;;;;;;16.10;3.80;;;;;;;;;;5128465;27;20031;-79
2021/03/29 03:14:53;;;;;;;11.75;3.03;;;;;;;;;;5125225;27;20743;-80
2021/03/29 03:17:19;;;;;;;16.48;3.88;;;;;;;;;;5124294;27;20370;-80
2021/03/29 03:19:45;;;;;;;12.90;3.28;;;;;;;;;;5121645;27;20462;-80
2021/03/29 03:22:12;;;;;;;12.68;2.90;;;;;;;;;;5125894;27;20444;-81
2021/03/29 03:24:39;;;;;;;13.70;3.85;;;;;;;;;;5126480;27;20051;-81
2021/03/29 03:27:08;;;;;;;15.75;3.40;;;;;;;;;;5128202;27;20042;-79
2021/03/29 03:29:41;;;;;;;14.82;4.28;;;;;;;;;;5134954;27;20042;-80
2021/03/29 03:32:15;;;;;;;16.50;3.38;;;;;;;;;;5131229;28;20035;-79
2021/03/29 03:34:41;;;;;;;11.20;3.00;;;;;;;;;;5118289;27;20142;-80
2021/03/29 03:37:09;;;;;;;11.55;2.55;;;;;;;;;;5119685;27;20027;-79
2021/03/29 03:39:36;;;;;;;15.65;3.97;;;;;;;;;;5121927;27;20060;-79
2021/03/29 03:42:03;;;;;;;13.68;3.08;;;;;;;;;;5123215;27;20510;-80
2021/03/29 03:44:30;;;;;;;15.10;2.53;;;;;;;;;;5125088;27;20032;-79
2021/03/29 03:46:57;;;;;;;12.45;2.97;;;;;;;;;;5150319;27;20074;-79
2021/03/29 03:49:24;;;;;;;14.07;3.72;;;;;;;;;;5131996;27;21327;-79
2021/03/29 03:51:51;;;;;;;11.55;3.10;;;;;;;;;;5129646;27;20092;-80
2021/03/29 03:54:19;;;;;;;15.80;3.85;;;;;;;;;;5123604;27;20039;-80
2021/03/29 03:56:46;;;;;;;13.73;3.75;;;;;;;;;;5133913;27;20050;-78
2021/03/29 03:59:13;;;;;;;14.40;3.15;;;;;;;;;;5143046;27;20031;-80
2021/03/29 04:01:58;;;;;;;14.60;3.50;;;;;;;;;;5127935;27;20062;-79
2021/03/29 04:04:24;;;;;;;11.65;3.55;;;;;;;;;;5128294;27;20039;-80
2021/03/29 04:06:51;;;;;;;12.57;4.40;;;;;;;;;;5136638;27;20047;-78
2021/03/29 04:09:17;;;;;;;12.40;3.58;;;;;;;;;;5138394;27;20092;-79
2021/03/29 04:11:50;;;;;;;10.63;3.08;;;;;;;;;;5111730;27;20039;-77
2021/03/29 04:14:16;;;;;;;16.40;3.70;;;;;;;;;;5101703;27;20050;-77
2021/03/29 04:16:42;;;;;;;11.88;3.50;;;;;;;;;;5116114;27;20055;-78
2021/03/29 04:19:08;;;;;;;16.48;3.60;;;;;;;;;;5121276;27;20405;-78
2021/03/29 04:21:34;;;;;;;18.10;3.53;;;;;;;;;;5118013;27;20118;-78
2021/03/29 04:24:01;;;;;;;16.42;3.88;;;;;;;;;;5128907;27;20051;-79
2021/03/29 04:26:27;;;;;;;10.90;3.25;;;;;;;;;;5115840;27;20096;-78
2021/03/29 04:28:54;;;;;;;15.65;3.85;;;;;;;;;;5123215;27;20115;-78
2021/03/29 04:31:20;;;;;;;19.23;3.83;;;;;;;;;;5114740;27;20095;-77
2021/03/29 04:33:46;;;;;;;7.95;3.25;;;;;;;;;;5115707;27;20043;-77
2021/03/29 04:36:12;;;;;;;12.77;3.15;;;;;;;;;;5116203;27;20066;-78
2021/03/29 04:38:38;;;;;;;14.90;3.67;;;;;;;;;;5120918;27;20054;-83
2021/03/29 04:41:05;;;;;;;13.82;3.30;;;;;;;;;;5110024;27;20035;-79
2021/03/29 04:43:32;;;;;;;12.63;3.60;;;;;;;;;;5109785;27;20450;-78
2021/03/29 04:45:58;;;;;;;14.10;4.00;;;;;;;;;;5096338;28;20075;-78
2021/03/29 04:48:24;;;;;;;9.88;3.20;;;;;;;;;;5141309;27;20049;-80
2021/03/29 04:50:50;;;;;;;11.82;3.53;;;;;;;;;;5123771;27;20043;-81
2021/03/29 04:53:17;;;;;;;10.38;3.50;;;;;;;;;;5131917;27;20031;-81
2021/03/29 04:55:43;;;;;;;13.40;3.72;;;;;;;;;;5129649;27;20062;-79
2021/03/29 04:58:12;;;;;;;19.55;4.30;;;;;;;;;;5134215;27;20054;-81
2021/03/29 05:00:38;;;;;;;17.20;4.28;;;;;;;;;;5124616;27;20039;-79
2021/03/29 05:03:05;;;;;;;14.65;4.05;;;;;;;;;;5114485;27;20055;-82
2021/03/29 05:05:31;;;;;;;16.45;4.53;;;;;;;;;;5120483;27;20043;-80
2021/03/29 05:07:57;;;;;;;12.75;3.97;;;;;;;;;;5127799;27;20039;-80
2021/03/29 05:10:23;;;;;;;14.45;3.63;;;;;;;;;;5130725;27;20036;-82
2021/03/29 05:12:49;;;;;;;11.55;3.30;;;;;;;;;;5111693;27;20387;-80
2021/03/29 05:15:16;;;;;;;11.60;3.55;;;;;;;;;;5110064;27;20104;-79
2021/03/29 05:17:42;;;;;;;16.85;3.70;;;;;;;;;;5132798;27;20055;-81
2021/03/29 05:20:09;;;;;;;16.55;4.93;;;;;;;;;;5124142;27;20032;-74
2021/03/29 05:22:35;;;;;;;11.65;3.50;;;;;;;;;;5131851;27;20045;-79
2021/03/29 05:25:02;;;;;;;18.55;4.03;;;;;;;;;;5129801;27;20394;-78
2021/03/29 05:27:28;;;;;;;16.63;3.80;;;;;;;;;;5131677;27;20054;-79
2021/03/29 05:29:54;;;;;;;11.20;4.07;;;;;;;;;;5133053;27;20066;-78
2021/03/29 05:32:25;;;;;;;15.57;4.75;;;;;;;;;;5114584;27;20398;-79
2021/03/29 05:34:52;;;;;;;14.65;4.40;;;;;;;;;;5128714;27;20260;-78
2021/03/29 05:37:20;;;;;;;18.17;4.05;;;;;;;;;;5121385;27;20106;-79
2021/03/29 05:39:46;;;;;;;15.35;3.75;;;;;;;;;;5125777;27;20037;-78
2021/03/29 05:42:12;;;;;;;17.73;4.32;;;;;;;;;;5133214;27;20104;-79
2021/03/29 05:44:39;;;;;;;13.38;4.07;;;;;;;;;;5133098;27;20035;-79
2021/03/29 05:47:06;;;;;;;11.40;4.00;;;;;;;;;;5131200;27;20432;-79
2021/03/29 05:49:32;;;;;;;17.83;3.30;;;;;;;;;;5114562;27;20055;-79
2021/03/29 05:51:59;;;;;;;11.82;3.72;;;;;;;;;;5130796;27;20122;-78
2021/03/29 05:54:26;;;;;;;11.85;3.80;;;;;;;;;;5131278;27;20079;-79
2021/03/29 05:56:52;;;;;;;12.57;3.50;;;;;;;;;;5132048;27;20062;-78
2021/03/29 05:59:21;;;;;;;20.98;3.65;;;;;;;;;;5131992;27;20061;-78
2021/03/29 06:01:52;;;;;;;11.10;3.42;;;;;;;;;;5130311;27;20043;-78
2021/03/29 06:04:37;;;;;;;13.52;3.28;;;;;;;;;;5132022;27;20436;-79
2021/03/29 06:07:13;;;;;;;11.10;3.28;;;;;;;;;;5110824;28;20052;-78
2021/03/29 06:09:40;;;;;;;20.15;3.63;;;;;;;;;;5125656;27;20100;-78
2021/03/29 06:12:07;;;;;;;12.90;3.67;;;;;;;;;;5121204;27;20248;-78
2021/03/29 06:14:34;;;;;;;14.68;4.18;;;;;;;;;;5122109;27;20039;-78
2021/03/29 06:17:10;;;;;;;16.33;3.38;;;;;;;;;;5131063;27;20053;-78
2021/03/29 06:19:38;;;;;;;20.50;3.28;;;;;;;;;;5119153;27;20039;-78
2021/03/29 06:22:12;;;;;;;12.52;3.20;;;;;;;;;;5124045;27;20470;-78
2021/03/29 06:24:38;;;;;;;;;;;;;;;;;;5131258;27;20058;-79
2021/03/29 06:27:04;;;;;;;12.18;2.78;;;;;;;;;;5131076;27;20274;-79
2021/03/29 06:29:30;;;;;;;16.33;3.38;;;;;;;;;;5131043;27;20455;-78
2021/03/29 06:31:58;;;;;;;12.93;3.50;;;;;;;;;;5118620;27;20039;-78
2021/03/29 06:34:32;;;;;;;13.00;2.90;;;;;;;;;;5131039;27;20491;-78
2021/03/29 06:37:06;;;;;;;14.73;3.22;;;;;;;;;;5130886;27;20039;-78
2021/03/29 06:39:35;;;;;;;14.57;3.58;;;;;;;;;;5131050;27;20054;-79
2021/03/29 06:42:01;;;;;;;15.70;3.75;;;;;;;;;;5121680;27;20409;-79
2021/03/29 06:44:31;;;;;;;19.00;3.72;;;;;;;;;;5145412;27;20520;-83
2021/03/29 06:47:25;;;;;;;15.10;2.80;;;;;;;;;;5133566;27;20039;-79
2021/03/29 06:49:52;;;;;;;16.35;4.50;;;;;;;;;;5135061;27;20107;-76
2021/03/29 06:52:21;;;;;;;15.20;3.78;;;;;;;;;;5134890;27;20446;-78
2021/03/29 06:54:47;;;;;;;12.40;3.80;;;;;;;;;;5116949;28;20028;-83
2021/03/29 06:57:14;;;;;;;16.95;3.35;;;;;;;;;;5112868;28;20039;-82
2021/03/29 06:59:46;;;;;;;14.50;3.75;;;;;;;;;;5130655;28;20370;-82
2021/03/29 07:02:12;;;;;;;22.48;5.07;;;;;;;;;;5130503;28;20506;-82
2021/03/29 07:04:38;;;;;;;19.27;4.65;;;;;;;;;;5132508;28;20222;-82
2021/03/29 07:07:04;;;;;;;18.23;4.43;;;;;;;;;;5113490;28;20046;-83
2021/03/29 07:09:36;;;;;;;18.10;4.20;;;;;;;;;;5127330;28;20122;-82
2021/03/29 07:12:06;;;;;;;22.10;4.15;;;;;;;;;;5130514;28;20097;-82
2021/03/29 07:14:32;;;;;;;18.27;4.15;;;;;;;;;;5131030;28;20475;-82
2021/03/29 07:16:59;;;;;;;22.30;4.45;;;;;;;;;;5130333;28;20125;-81
2021/03/29 07:19:26;;;;;;;18.10;3.70;;;;;;;;;;5113197;28;20093;-82
2021/03/29 07:21:52;;;;;;;16.77;4.50;;;;;;;;;;5114198;27;20071;-82
2021/03/29 07:24:18;;;;;;;17.92;4.10;;;;;;;;;;5115201;28;20402;-83
2021/03/29 07:26:48;;;;;;;16.20;4.43;;;;;;;;;;5146930;27;20051;-83
2021/03/29 07:29:18;;;;;;;18.38;3.95;;;;;;;;;;5135479;27;20055;-82
2021/03/29 07:31:44;;;;;;;18.63;4.45;;;;;;;;;;5134922;27;20039;-82
2021/03/29 07:34:11;;;;;;;16.65;4.57;;;;;;;;;;5130736;27;20066;-82
2021/03/29 07:36:38;;;;;;;17.73;4.20;;;;;;;;;;5131310;27;20062;-82
2021/03/29 07:39:05;;;;;;;20.95;4.45;;;;;;;;;;5123723;27;20050;-81
2021/03/29 07:41:41;;;;;;;18.02;4.35;;;;;;;;;;5135930;27;20394;-81
2021/03/29 07:44:10;;;;;;;16.80;4.07;;;;;;;;;;5134458;27;20047;-81
2021/03/29 07:46:37;;;;;;;18.77;4.13;;;;;;;;;;5135404;27;20118;-81
2021/03/29 07:49:03;;;;;;;22.98;4.15;;;;;;;;;;5134107;27;20045;-81
2021/03/29 07:51:30;;;;;;;20.83;4.15;;;;;;;;;;5133882;27;20047;-82
2021/03/29 07:54:01;;;;;;;17.08;3.78;;;;;;;;;;5135608;27;20039;-81
2021/03/29 07:56:30;;;;;;;21.90;4.03;;;;;;;;;;5135533;27;20039;-82
2021/03/29 07:58:56;;;;;;;17.73;4.95;;;;;;;;;;5134449;27;20043;-82
2021/03/29 08:01:22;;;;;;;17.27;4.70;;;;;;;;;;5133786;27;20117;-82
2021/03/29 08:03:52;;;;;;;17.10;4.00;;;;;;;;;;5133093;27;20075;-82
2021/03/29 08:06:37;;;;;;;17.02;4.40;;;;;;;;;;5133484;27;20046;-82
2021/03/29 08:09:04;;;;;;;21.95;4.90;;;;;;;;;;5125090;27;20065;-83
2021/03/29 08:11:49;;;;;;;15.85;4.13;;;;;;;;;;5114847;28;20067;-81
2021/03/29 08:14:29;;;;;;;17.27;3.67;;;;;;;;;;5130325;27;20058;-81
2021/03/29 08:16:55;;;;;;;15.13;4.43;;;;;;;;;;5130307;27;20101;-81
2021/03/29 08:19:24;;;;;;;16.55;4.47;;;;;;;;;;5134917;27;20349;-81
2021/03/29 08:21:55;;;;;;;18.00;4.90;;;;;;;;;;5114294;28;20059;-81
2021/03/29 08:24:41;;;;;;;14.70;4.22;;;;;;;;;;5146458;27;20047;-82
2021/03/29 08:27:08;;;;;;;29.38;5.75;;;;;;;;;;5124096;27;20185;-82
2021/03/29 08:29:35;;;;;;;22.27;4.80;;;;;;;;;;5132677;27;20047;-82
2021/03/29 08:32:07;;;;;;;13.63;4.65;;;;;;;;;;5133160;27;20043;-81
2021/03/29 08:34:42;;;;;;;17.30;4.25;;;;;;;;;;5133451;27;20122;-81
2021/03/29 08:37:09;;;;;;;17.15;4.32;;;;;;;;;;5134530;27;20122;-81
2021/03/29 08:39:37;;;;;;;17.00;4.70;;;;;;;;;;5134489;27;20047;-81
2021/03/29 08:42:04;;;;;;;20.10;4.57;;;;;;;;;;5133382;27;20038;-81
2021/03/29 08:44:30;;;;;;;14.35;4.57;;;;;;;;;;5134854;27;20059;-81
2021/03/29 08:46:57;;;;;;;14.45;4.32;;;;;;;;;;5120749;27;20047;-81
2021/03/29 08:49:23;;;;;;;23.48;4.70;;;;;;;;;;5112271;28;20077;-81
2021/03/29 08:51:54;;;;;;;15.77;4.82;;;;;;;;;;5114019;28;20036;-81
2021/03/29 08:54:20;;;;;;;19.88;5.03;;;;;;;;;;5113570;27;20040;-81
2021/03/29 08:56:54;;;;;;;19.63;4.65;;;;;;;;;;5121980;27;20424;-82
2021/03/29 08:59:27;;;;;;;22.05;5.28;;;;;;;;;;5133521;27;20088;-82
2021/03/29 09:01:53;;;;;;;17.57;5.30;;;;;;;;;;5134179;27;20046;-82
2021/03/29 09:04:20;;;;;;;21.95;4.78;;;;;;;;;;5132907;27;20051;-81
2021/03/29 09:06:51;;;;;;;16.83;4.75;;;;;;;;;;5120524;27;20043;-82
2021/03/29 09:09:18;;;;;;;16.30;5.60;;;;;;;;;;5131290;27;20032;-81
2021/03/29 09:11:46;;;;;;;15.88;5.60;;;;;;;;;;5146648;27;20044;-82
2021/03/29 09:14:12;;;;;;;19.35;5.15;;;;;;;;;;5112926;28;20051;-82
2021/03/29 09:16:39;;;;;;;20.67;4.90;;;;;;;;;;5112552;28;20039;-82
2021/03/29 09:19:12;;;;;;;18.52;5.45;;;;;;;;;;5147321;27;20062;-81
2021/03/29 09:21:39;;;;;;;15.95;5.65;;;;;;;;;;5111984;28;20138;-82
2021/03/29 09:24:19;;;;;;;17.95;5.60;;;;;;;;;;5129710;27;20039;-81
2021/03/29 09:26:55;;;;;;;16.85;5.03;;;;;;;;;;5112176;28;20048;-82
2021/03/29 09:29:33;;;;;;;22.90;5.95;;;;;;;;;;5128731;27;20036;-81
2021/03/29 09:32:07;;;;;;;19.63;5.28;;;;;;;;;;5111948;28;20067;-81
2021/03/29 09:34:36;;;;;;;18.67;5.97;;;;;;;;;;5128488;27;20479;-82
2021/03/29 09:37:05;;;;;;;25.15;5.28;;;;;;;;;;5113304;28;20445;-82
2021/03/29 09:39:31;;;;;;;23.05;5.78;;;;;;;;;;5124046;27;20125;-82
2021/03/29 09:42:00;;;;;;;22.00;6.40;;;;;;;;;;5131925;27;20043;-82
2021/03/29 09:44:30;;;;;;;17.65;6.25;;;;;;;;;;5111422;28;20542;-82
2021/03/29 09:46:58;;;;;;;21.02;6.90;;;;;;;;;;5112276;27;20035;-82
2021/03/29 09:49:24;;;;;;;20.08;5.45;;;;;;;;;;5119791;27;20046;-82
2021/03/29 09:51:51;;;;;;;27.80;7.63;;;;;;;;;;5131536;27;20063;-82
2021/03/29 09:54:28;;;;;;;18.45;5.80;;;;;;;;;;5131579;27;20443;-83
2021/03/29 09:57:15;;;;;;;19.35;6.30;;;;;;;;;;5117836;27;20405;-82
2021/03/29 09:59:43;;;;;;;21.50;5.82;;;;;;;;;;5131971;27;20125;-81
2021/03/29 10:02:16;;;;;;;26.15;6.80;;;;;;;;;;5130077;27;20126;-83
2021/03/29 10:04:43;;;;;;;26.40;6.53;;;;;;;;;;5116348;27;20051;-83
2021/03/29 10:07:17;;;;;;;19.15;7.60;;;;;;;;;;5144817;27;20055;-82
2021/03/29 10:09:47;;;;;;;18.05;5.97;;;;;;;;;;5127221;27;20035;-83
2021/03/29 10:12:24;;;;;;;21.35;6.13;;;;;;;;;;5114950;27;20147;-83
2021/03/29 10:14:51;;;;;;;18.10;6.18;;;;;;;;;;5133080;27;20039;-83
2021/03/29 10:17:19;;;;;;;23.95;6.40;;;;;;;;;;5132063;27;20109;-82
2021/03/29 10:19:45;;;;;;;23.60;6.68;;;;;;;;;;5130722;27;20047;-83
2021/03/29 10:22:16;;;;;;;19.33;6.18;;;;;;;;;;5130935;27;20051;-83
2021/03/29 10:25:03;;;;;;;22.80;7.15;;;;;;;;;;5111620;28;20047;-83
2021/03/29 10:27:47;;;;;;;17.92;6.57;;;;;;;;;;5127753;27;20043;-83
2021/03/29 10:30:22;;;;;;;22.90;7.13;;;;;;;;;;5119461;27;20455;-80
2021/03/29 10:32:49;;;;;;;24.83;7.63;;;;;;;;;;5112188;27;20494;-80
2021/03/29 10:35:15;;;;;;;21.80;7.55;;;;;;;;;;5144953;27;20043;-79
2021/03/29 10:37:42;;;;;;;22.30;7.43;;;;;;;;;;5112203;28;20256;-78
2021/03/29 10:40:09;;;;;;;25.67;8.88;;;;;;;;;;5157621;27;20475;-78
2021/03/29 10:42:36;;;;;;;23.90;6.93;;;;;;;;;;5130828;27;20043;-79
2021/03/29 10:45:04;;;;;;;25.35;7.22;;;;;;;;;;5127963;27;20080;-77
2021/03/29 10:47:30;;;;;;;22.73;7.82;;;;;;;;;;5131611;27;20441;-77
2021/03/29 10:49:57;;;;;;;20.15;8.32;;;;;;;;;;5112483;28;20047;-76
2021/03/29 10:52:23;;;;;;;22.50;7.57;;;;;;;;;;5110802;28;20550;-76
2021/03/29 10:54:50;;;;;;;22.00;8.40;;;;;;;;;;5129067;27;20047;-81
2021/03/29 10:57:17;;;;;;;22.63;8.30;;;;;;;;;;5131475;28;20035;-74
2021/03/29 10:59:43;;;;;;;25.52;8.18;;;;;;;;;;5124733;27;20039;-78
2021/03/29 11:02:10;;;;;;;24.80;8.32;;;;;;;;;;5128251;27;20419;-72
2021/03/29 11:04:36;;;;;;;26.55;9.05;;;;;;;;;;5143136;27;20125;-78
2021/03/29 11:07:02;;;;;;;22.38;9.55;;;;;;;;;;5131069;28;20073;-77
2021/03/29 11:09:28;;;;;;;24.40;8.13;;;;;;;;;;5130994;28;20492;-76
2021/03/29 11:11:55;;;;;;;21.38;8.40;;;;;;;;;;5131564;28;20425;-75
2021/03/29 11:14:21;;;;;;;24.02;9.93;;;;;;;;;;5130934;28;20042;-76
2021/03/29 11:16:50;;;;;;;29.25;9.63;;;;;;;;;;5131764;28;20035;-76
2021/03/29 11:19:17;;;;;;;27.50;9.30;;;;;;;;;;5128963;28;20494;-76
2021/03/29 11:21:43;;;;;;;25.67;9.70;;;;;;;;;;5136972;27;20079;-76
2021/03/29 11:24:10;;;;;;;24.92;9.57;;;;;;;;;;5131803;28;20122;-77
2021/03/29 11:26:36;;;;;;;27.20;10.85;;;;;;;;;;5137342;27;20481;-77
2021/03/29 11:29:02;;;;;;;28.05;9.70;;;;;;;;;;5112008;28;20157;-77
2021/03/29 11:31:28;;;;;;;24.35;9.10;;;;;;;;;;5141162;27;20043;-76
2021/03/29 11:33:55;;;;;;;23.15;9.35;;;;;;;;;;5131333;28;20043;-77
2021/03/29 11:36:21;;;;;;;22.23;8.43;;;;;;;;;;5130988;28;20043;-78
2021/03/29 11:38:49;;;;;;;32.25;9.43;;;;;;;;;;5126010;28;20038;-76
2021/03/29 11:41:16;;;;;;;26.33;8.10;;;;;;;;;;5131298;28;20051;-74
2021/03/29 11:43:43;;;;;;;20.15;7.85;;;;;;;;;;5129692;28;20053;-75
2021/03/29 11:46:09;;;;;;;22.85;7.95;;;;;;;;;;5130762;28;20070;-74
2021/03/29 11:48:35;;;;;;;18.67;7.32;;;;;;;;;;5130770;28;20050;-70
2021/03/29 11:51:01;;;;;;;24.55;7.57;;;;;;;;;;5130457;28;20051;-72
2021/03/29 11:53:27;;;;;;;22.58;6.93;;;;;;;;;;5130467;28;20058;-80
2021/03/29 11:55:54;;;;;;;19.63;7.88;;;;;;;;;;5131518;28;20035;-73
2021/03/29 11:58:21;;;;;;;19.88;7.78;;;;;;;;;;5112527;28;20032;-73
2021/03/29 12:00:51;;;;;;;23.55;8.18;;;;;;;;;;5127676;28;20126;-73
2021/03/29 12:03:30;;;;;;;22.23;7.50;;;;;;;;;;5129936;28;20084;-74
2021/03/29 12:06:19;;;;;;;23.17;7.25;;;;;;;;;;5133869;27;20051;-74
2021/03/29 12:08:57;;;;;;;28.02;7.45;;;;;;;;;;5133891;27;20049;-75
2021/03/29 12:14:08;;;;;;;24.30;7.18;;;;;;;;;;5125238;27;20042;-75
2021/03/29 12:16:41;;;;;;;19.58;6.53;;;;;;;;;;5133085;27;20058;-72
2021/03/29 12:19:07;;;;;;;22.77;7.18;;;;;;;;;;5133502;27;20039;-72
2021/03/29 12:21:35;;;;;;;20.67;6.95;;;;;;;;;;5126236;27;20478;-76
2021/03/29 12:24:07;;;;;;;26.38;7.20;;;;;;;;;;5126923;27;20490;-77
2021/03/29 12:26:33;;;;;;;21.65;6.57;;;;;;;;;;5133457;27;20077;-76
2021/03/29 12:28:59;;;;;;;26.45;6.97;;;;;;;;;;5134467;27;20031;-76
2021/03/29 12:31:26;;;;;;;24.98;7.53;;;;;;;;;;5134502;27;20080;-76
2021/03/29 12:33:53;;;;;;;21.30;6.43;;;;;;;;;;5132763;27;20042;-76
2021/03/29 12:36:21;;;;;;;22.52;6.90;;;;;;;;;;5133118;27;20058;-74
2021/03/29 12:38:55;;;;;;;27.48;6.75;;;;;;;;;;5133923;27;20454;-74
2021/03/29 12:41:24;;;;;;;22.60;6.50;;;;;;;;;;5117294;27;20058;-74
2021/03/29 12:44:01;;;;;;;29.92;7.97;;;;;;;;;;5133861;27;20038;-74
2021/03/29 12:46:27;;;;;;;18.58;6.45;;;;;;;;;;5134453;27;20039;-75
2021/03/29 12:48:53;;;;;;;24.88;6.75;;;;;;;;;;5133103;27;20046;-76
2021/03/29 12:51:19;;;;;;;25.35;7.18;;;;;;;;;;5132840;27;20067;-76
2021/03/29 12:53:47;;;;;;;22.85;7.28;;;;;;;;;;5133798;27;20065;-76
2021/03/29 12:56:16;;;;;;;23.08;7.05;;;;;;;;;;5132976;27;20047;-76
2021/03/29 12:58:42;;;;;;;25.40;7.45;;;;;;;;;;5132958;27;20474;-76
2021/03/29 13:01:11;;;;;;;30.83;7.53;;;;;;;;;;5132270;27;20047;-77
2021/03/29 13:03:41;;;;;;;23.55;6.95;;;;;;;;;;5133211;27;20084;-76
2021/03/29 13:06:15;;;;;;;20.48;7.32;;;;;;;;;;5134350;27;20070;-75
2021/03/29 13:08:42;;;;;;;22.05;6.85;;;;;;;;;;5130323;27;20070;-73
2021/03/29 13:13:43;;;;;;;26.05;6.90;;;;;;;;;;5130734;27;20513;-75
2021/03/29 13:16:09;;;;;;;23.00;6.05;;;;;;;;;;5134921;27;20783;-81
2021/03/29 13:18:35;;;;;;;22.20;6.70;;;;;;;;;;5128080;27;20438;-74
2021/03/29 13:21:01;;;;;;;19.42;6.63;;;;;;;;;;5130592;27;20039;-73
2021/03/29 13:23:28;;;;;;;22.05;6.63;;;;;;;;;;5131991;27;20127;-72
2021/03/29 13:25:54;;;;;;;34.83;7.97;;;;;;;;;;5127141;27;20047;-74
2021/03/29 13:28:20;;;;;;;32.70;7.00;;;;;;;;;;5131960;27;20103;-75
2021/03/29 13:30:47;;;;;;;32.58;7.13;;;;;;;;;;5129766;27;20063;-75
2021/03/29 13:33:14;;;;;;;22.50;6.22;;;;;;;;;;5131231;27;20119;-75
2021/03/29 13:35:40;;;;;;;24.25;8.30;;;;;;;;;;5129176;27;20075;-74
2021/03/29 13:38:07;;;;;;;23.27;6.82;;;;;;;;;;5148992;27;20054;-74
2021/03/29 13:40:34;;;;;;;20.90;6.70;;;;;;;;;;5131960;27;20039;-74
2021/03/29 13:43:01;;;;;;;17.00;6.28;;;;;;;;;;5131123;27;20047;-74
2021/03/29 13:45:27;;;;;;;24.15;7.28;;;;;;;;;;5131968;27;20084;-75
2021/03/29 13:47:54;;;;;;;21.13;7.13;;;;;;;;;;5130069;27;20059;-75
2021/03/29 13:50:21;;;;;;;21.45;6.40;;;;;;;;;;5132089;27;20436;-75
2021/03/29 13:52:48;;;;;;;25.33;6.90;;;;;;;;;;5110178;27;20196;-75
2021/03/29 13:55:16;;;;;;;22.83;6.60;;;;;;;;;;5111788;28;20078;-75
2021/03/29 13:57:43;;;;;;;26.00;7.95;;;;;;;;;;5130189;27;20051;-75
2021/03/29 14:00:11;;;;;;;22.70;7.38;;;;;;;;;;5131623;27;20046;-76
2021/03/29 14:02:41;;;;;;;25.75;7.07;;;;;;;;;;5129941;27;20039;-81
2021/03/29 14:05:08;;;;;;;22.48;7.68;;;;;;;;;;5152531;27;20042;-77
2021/03/29 14:07:34;;;;;;;20.55;6.45;;;;;;;;;;5131325;27;20542;-74
2021/03/29 14:10:01;;;;;;;22.40;7.38;;;;;;;;;;5111874;27;20691;-77
2021/03/29 14:12:27;;;;;;;29.63;8.10;;;;;;;;;;5131225;27;20085;-76
2021/03/29 14:14:53;;;;;;;22.67;7.78;;;;;;;;;;5127331;27;20101;-76
2021/03/29 14:17:20;;;;;;;20.67;6.57;;;;;;;;;;5125952;27;20394;-75
2021/03/29 14:19:47;;;;;;;20.88;6.47;;;;;;;;;;5126951;27;20043;-75
2021/03/29 14:22:13;;;;;;;21.58;7.07;;;;;;;;;;5129150;27;20047;-76
2021/03/29 14:24:39;;;;;;;24.20;8.02;;;;;;;;;;5111985;27;20035;-77
2021/03/29 14:27:05;;;;;;;18.55;6.55;;;;;;;;;;5129517;27;20051;-78
2021/03/29 14:29:41;;;;;;;21.35;7.30;;;;;;;;;;5129944;27;20042;-77
2021/03/29 14:32:10;;;;;;;20.23;7.20;;;;;;;;;;5127382;27;20138;-77
2021/03/29 14:34:38;;;;;;;19.55;7.30;;;;;;;;;;5129527;27;20434;-75
2021/03/29 14:39:38;;;;;;;22.02;6.78;;;;;;;;;;5129940;27;20378;-74
2021/03/29 14:42:21;;;;;;;20.95;8.32;;;;;;;;;;5130168;27;20051;-75
2021/03/29 14:44:47;;;;;;;19.05;7.22;;;;;;;;;;5127506;27;20046;-74